Rohrsburg, Pennsylvania
Current Conditions -  °F | °C
As of 5:35 PM on Monday 26 Jan 2015 (Local Time) from KHZL Reporting Station
Light Snow Light Snow  
Wind Chill: 15°   Ceiling: 2600
Heat Index: 23°   Visibility: 4mi
Dew Point: 19°   Wind: 7mph
Humidity: 86%   Direction: 70°ENE
Pressure: 29.76"   Gusts: NA
Location:  41.1114°N, 76.3684°W
Report Text: KHZL 262235Z AUTO 07006KT 4SM -SN SCT016 OVC026 M05/M07 A2976 RMK AO2 LTG DSNT SE
Loading
Personal Weather Stations






























Interactive Weather Map New forecast layout! Learn more

10-Day Weather Forecast

Advertisements
Track Severe Weather on mobile